Fruitland, Utah
Current Conditions -  °F | °C
As of 3:35 PM on Monday 22 Dec 2014 (Local Time) from K36U Reporting Station
Light Snow Light Snow  
Wind Chill: 34°   Ceiling: 1200
Heat Index: 34°   Visibility: 5mi
Dew Point: 30°   Wind: 3mph
Humidity: 87%   Direction: 310°NW
Pressure: 29.93"   Gusts: NA
Location:  40.21°N, 110.84°W
Report Text: K36U 222235Z AUTO 31003KT 5SM -SN BKN012 BKN019 OVC025 01/M01 A2993 RMK AO2
Loading
Personal Weather Stations






























Interactive Weather Map New forecast layout! Learn more

10-Day Weather Forecast

Advertisements
Track Severe Weather on mobile